sensor_id;sensor_type;location;lat;lon;timestamp;P1;durP1;ratioP1;P2;durP2;ratioP2
53939;SDS011;39850;43.324;21.916;2022-11-02T00:00:41;32.0;;;25.0;;
53939;SDS011;39850;43.324;21.916;2022-11-02T00:05:19;32.0;;;25.0;;
53939;SDS011;39850;43.324;21.916;2022-11-02T00:09:55;32.0;;;26.0;;
53939;SDS011;39850;43.324;21.916;2022-11-02T00:14:31;32.0;;;26.0;;
53939;SDS011;39850;43.324;21.916;2022-11-02T00:19:09;32.0;;;25.0;;
53939;SDS011;39850;43.324;21.916;2022-11-02T00:23:48;32.0;;;25.0;;
53939;SDS011;39850;43.324;21.916;2022-11-02T00:28:27;32.0;;;26.0;;
53939;SDS011;39850;43.324;21.916;2022-11-02T00:33:05;32.0;;;26.0;;
53939;SDS011;39850;43.324;21.916;2022-11-02T00:37:42;30.0;;;25.0;;
53939;SDS011;39850;43.324;21.916;2022-11-02T00:42:18;30.0;;;25.0;;
53939;SDS011;39850;43.324;21.916;2022-11-02T00:46:55;30.0;;;25.0;;
53939;SDS011;39850;43.324;21.916;2022-11-02T01:19:13;34.0;;;28.0;;
53939;SDS011;39850;43.324;21.916;2022-11-02T01:23:51;34.0;;;28.0;;
53939;SDS011;39850;43.324;21.916;2022-11-02T01:28:28;34.0;;;28.0;;
53939;SDS011;39850;43.324;21.916;2022-11-02T01:33:05;34.0;;;28.0;;
53939;SDS011;39850;43.324;21.916;2022-11-02T01:37:42;34.0;;;28.0;;
53939;SDS011;39850;43.324;21.916;2022-11-02T01:42:25;34.0;;;28.0;;
53939;SDS011;39850;43.324;21.916;2022-11-02T01:47:20;34.0;;;28.0;;
53939;SDS011;39850;43.324;21.916;2022-11-02T01:52:16;34.0;;;28.0;;
53939;SDS011;39850;43.324;21.916;2022-11-02T01:57:08;34.0;;;28.0;;
53939;SDS011;39850;43.324;21.916;2022-11-02T02:01:52;35.0;;;28.0;;
53939;SDS011;39850;43.324;21.916;2022-11-02T02:06:29;35.0;;;28.0;;
53939;SDS011;39850;43.324;21.916;2022-11-02T02:42:10;23.0;;;19.0;;
53939;SDS011;39850;43.324;21.916;2022-11-02T02:47:07;23.0;;;19.0;;
53939;SDS011;39850;43.324;21.916;2022-11-02T02:51:51;23.0;;;19.0;;
53939;SDS011;39850;43.324;21.916;2022-11-02T02:56:47;23.0;;;19.0;;
53939;SDS011;39850;43.324;21.916;2022-11-02T03:01:28;23.0;;;19.0;;
53939;SDS011;39850;43.324;21.916;2022-11-02T03:06:26;23.0;;;19.0;;
53939;SDS011;39850;43.324;21.916;2022-11-02T03:11:18;23.0;;;18.0;;
53939;SDS011;39850;43.324;21.916;2022-11-02T03:16:26;23.0;;;18.0;;
53939;SDS011;39850;43.324;21.916;2022-11-02T03:21:43;23.0;;;18.0;;
53939;SDS011;39850;43.324;21.916;2022-11-02T03:26:42;23.0;;;18.0;;
53939;SDS011;39850;43.324;21.916;2022-11-02T04:00:44;20.0;;;14.0;;
53939;SDS011;39850;43.324;21.916;2022-11-02T04:05:33;20.0;;;14.0;;
53939;SDS011;39850;43.324;21.916;2022-11-02T04:10:11;20.0;;;14.0;;
53939;SDS011;39850;43.324;21.916;2022-11-02T04:14:48;20.0;;;14.0;;
53939;SDS011;39850;43.324;21.916;2022-11-02T04:19:25;20.0;;;14.0;;
53939;SDS011;39850;43.324;21.916;2022-11-02T04:24:01;20.0;;;14.0;;
53939;SDS011;39850;43.324;21.916;2022-11-02T04:28:38;20.0;;;14.0;;
53939;SDS011;39850;43.324;21.916;2022-11-02T04:33:15;20.0;;;14.0;;
53939;SDS011;39850;43.324;21.916;2022-11-02T04:37:52;20.0;;;14.0;;
53939;SDS011;39850;43.324;21.916;2022-11-02T04:42:29;20.0;;;14.0;;
53939;SDS011;39850;43.324;21.916;2022-11-02T04:47:05;20.0;;;14.0;;
53939;SDS011;39850;43.324;21.916;2022-11-02T05:19:24;20.0;;;14.0;;
53939;SDS011;39850;43.324;21.916;2022-11-02T05:24:01;20.0;;;14.0;;
53939;SDS011;39850;43.324;21.916;2022-11-02T05:28:38;20.0;;;14.0;;
53939;SDS011;39850;43.324;21.916;2022-11-02T05:33:15;20.0;;;14.0;;
53939;SDS011;39850;43.324;21.916;2022-11-02T05:37:54;20.0;;;14.0;;
53939;SDS011;39850;43.324;21.916;2022-11-02T05:42:31;20.0;;;14.0;;
53939;SDS011;39850;43.324;21.916;2022-11-02T05:47:08;20.0;;;14.0;;
53939;SDS011;39850;43.324;21.916;2022-11-02T05:51:45;19.0;;;14.0;;
53939;SDS011;39850;43.324;21.916;2022-11-02T05:56:22;19.0;;;14.0;;
53939;SDS011;39850;43.324;21.916;2022-11-02T06:01:02;18.0;;;13.0;;
53939;SDS011;39850;43.324;21.916;2022-11-02T06:05:43;18.0;;;13.0;;
53939;SDS011;39850;43.324;21.916;2022-11-02T06:42:35;22.0;;;17.0;;
53939;SDS011;39850;43.324;21.916;2022-11-02T06:47:12;22.0;;;17.0;;
53939;SDS011;39850;43.324;21.916;2022-11-02T06:51:50;22.0;;;17.0;;
53939;SDS011;39850;43.324;21.916;2022-11-02T06:56:27;22.0;;;17.0;;
53939;SDS011;39850;43.324;21.916;2022-11-02T07:01:09;23.0;;;17.0;;
53939;SDS011;39850;43.324;21.916;2022-11-02T07:05:52;23.0;;;17.0;;
53939;SDS011;39850;43.324;21.916;2022-11-02T07:10:32;23.0;;;16.0;;
53939;SDS011;39850;43.324;21.916;2022-11-02T07:15:10;23.0;;;16.0;;
53939;SDS011;39850;43.324;21.916;2022-11-02T07:19:46;23.0;;;16.0;;
53939;SDS011;39850;43.324;21.916;2022-11-02T07:24:23;23.0;;;16.0;;
53939;SDS011;39850;43.324;21.916;2022-11-02T07:29:00;23.0;;;16.0;;
53939;SDS011;39850;43.324;21.916;2022-11-02T08:01:15;27.0;;;18.0;;
53939;SDS011;39850;43.324;21.916;2022-11-02T08:05:52;27.0;;;18.0;;
53939;SDS011;39850;43.324;21.916;2022-11-02T08:10:34;26.0;;;17.0;;
53939;SDS011;39850;43.324;21.916;2022-11-02T08:15:12;26.0;;;17.0;;
53939;SDS011;39850;43.324;21.916;2022-11-02T08:19:48;25.0;;;17.0;;
53939;SDS011;39850;43.324;21.916;2022-11-02T08:24:24;25.0;;;17.0;;
53939;SDS011;39850;43.324;21.916;2022-11-02T08:29:02;25.0;;;17.0;;
53939;SDS011;39850;43.324;21.916;2022-11-02T08:33:38;24.0;;;16.0;;
53939;SDS011;39850;43.324;21.916;2022-11-02T08:38:17;24.0;;;16.0;;
53939;SDS011;39850;43.324;21.916;2022-11-02T08:42:57;22.0;;;17.0;;
53939;SDS011;39850;43.324;21.916;2022-11-02T08:47:41;22.0;;;17.0;;
53939;SDS011;39850;43.324;21.916;2022-11-02T09:20:09;26.0;;;17.0;;
53939;SDS011;39850;43.324;21.916;2022-11-02T09:24:46;26.0;;;17.0;;
53939;SDS011;39850;43.324;21.916;2022-11-02T09:29:23;26.0;;;17.0;;
53939;SDS011;39850;43.324;21.916;2022-11-02T09:33:59;26.0;;;17.0;;
53939;SDS011;39850;43.324;21.916;2022-11-02T09:38:35;26.0;;;17.0;;
53939;SDS011;39850;43.324;21.916;2022-11-02T09:43:44;26.0;;;17.0;;
53939;SDS011;39850;43.324;21.916;2022-11-02T09:48:38;26.0;;;17.0;;
53939;SDS011;39850;43.324;21.916;2022-11-02T09:53:45;26.0;;;16.0;;
53939;SDS011;39850;43.324;21.916;2022-11-02T09:58:44;26.0;;;16.0;;
53939;SDS011;39850;43.324;21.916;2022-11-02T10:04:23;25.0;;;16.0;;
53939;SDS011;39850;43.324;21.916;2022-11-02T10:45:12;29.0;;;20.0;;
53939;SDS011;39850;43.324;21.916;2022-11-02T10:50:46;30.0;;;21.0;;
53939;SDS011;39850;43.324;21.916;2022-11-02T10:55:55;30.0;;;21.0;;
53939;SDS011;39850;43.324;21.916;2022-11-02T11:00:39;29.0;;;20.0;;
53939;SDS011;39850;43.324;21.916;2022-11-02T11:05:19;29.0;;;20.0;;
53939;SDS011;39850;43.324;21.916;2022-11-02T11:09:57;30.0;;;20.0;;
53939;SDS011;39850;43.324;21.916;2022-11-02T11:14:52;30.0;;;20.0;;
53939;SDS011;39850;43.324;21.916;2022-11-02T11:19:40;30.0;;;20.0;;
53939;SDS011;39850;43.324;21.916;2022-11-02T11:24:33;28.0;;;18.0;;
53939;SDS011;39850;43.324;21.916;2022-11-02T11:29:22;28.0;;;18.0;;
53939;SDS011;39850;43.324;21.916;2022-11-02T12:03:12;21.0;;;13.0;;
53939;SDS011;39850;43.324;21.916;2022-11-02T12:08:48;21.0;;;13.0;;
53939;SDS011;39850;43.324;21.916;2022-11-02T12:14:20;20.0;;;13.0;;
53939;SDS011;39850;43.324;21.916;2022-11-02T12:20:05;20.0;;;13.0;;
53939;SDS011;39850;43.324;21.916;2022-11-02T12:25:47;21.0;;;13.0;;
53939;SDS011;39850;43.324;21.916;2022-11-02T12:31:13;21.0;;;14.0;;
53939;SDS011;39850;43.324;21.916;2022-11-02T12:36:45;21.0;;;14.0;;
53939;SDS011;39850;43.324;21.916;2022-11-02T12:42:21;23.0;;;15.0;;
53939;SDS011;39850;43.324;21.916;2022-11-02T12:47:47;23.0;;;15.0;;
53939;SDS011;39850;43.324;21.916;2022-11-02T13:22:46;19.0;;;13.0;;
53939;SDS011;39850;43.324;21.916;2022-11-02T13:27:47;19.0;;;13.0;;
53939;SDS011;39850;43.324;21.916;2022-11-02T13:32:42;17.0;;;12.0;;
53939;SDS011;39850;43.324;21.916;2022-11-02T13:37:39;17.0;;;12.0;;
53939;SDS011;39850;43.324;21.916;2022-11-02T13:43:41;16.0;;;11.0;;
53939;SDS011;39850;43.324;21.916;2022-11-02T13:49:22;16.0;;;11.0;;
53939;SDS011;39850;43.324;21.916;2022-11-02T13:54:24;16.0;;;11.0;;
53939;SDS011;39850;43.324;21.916;2022-11-02T13:59:27;16.0;;;11.0;;
53939;SDS011;39850;43.324;21.916;2022-11-02T14:04:14;16.0;;;11.0;;
53939;SDS011;39850;43.324;21.916;2022-11-02T14:09:02;16.0;;;11.0;;
53939;SDS011;39850;43.324;21.916;2022-11-02T14:46:18;18.0;;;14.0;;
53939;SDS011;39850;43.324;21.916;2022-11-02T14:51:27;18.0;;;14.0;;
53939;SDS011;39850;43.324;21.916;2022-11-02T14:56:08;18.0;;;14.0;;
53939;SDS011;39850;43.324;21.916;2022-11-02T15:01:01;19.0;;;14.0;;
53939;SDS011;39850;43.324;21.916;2022-11-02T15:06:02;19.0;;;14.0;;
53939;SDS011;39850;43.324;21.916;2022-11-02T15:10:52;19.0;;;14.0;;
53939;SDS011;39850;43.324;21.916;2022-11-02T15:15:33;19.0;;;14.0;;
53939;SDS011;39850;43.324;21.916;2022-11-02T15:20:43;19.0;;;15.0;;
53939;SDS011;39850;43.324;21.916;2022-11-02T15:25:26;19.0;;;15.0;;
53939;SDS011;39850;43.324;21.916;2022-11-02T15:30:17;19.0;;;15.0;;
53939;SDS011;39850;43.324;21.916;2022-11-02T16:05:03;22.0;;;19.0;;
53939;SDS011;39850;43.324;21.916;2022-11-02T16:09:40;22.0;;;19.0;;
53939;SDS011;39850;43.324;21.916;2022-11-02T16:14:17;22.0;;;19.0;;
53939;SDS011;39850;43.324;21.916;2022-11-02T16:18:54;22.0;;;19.0;;
53939;SDS011;39850;43.324;21.916;2022-11-02T16:23:37;22.0;;;19.0;;
53939;SDS011;39850;43.324;21.916;2022-11-02T16:28:27;22.0;;;19.0;;
53939;SDS011;39850;43.324;21.916;2022-11-02T16:33:11;22.0;;;18.0;;
53939;SDS011;39850;43.324;21.916;2022-11-02T16:37:49;22.0;;;18.0;;
53939;SDS011;39850;43.324;21.916;2022-11-02T16:42:27;23.0;;;18.0;;
53939;SDS011;39850;43.324;21.916;2022-11-02T16:47:17;23.0;;;18.0;;
53939;SDS011;39850;43.324;21.916;2022-11-02T17:26:36;20.0;;;15.0;;
53939;SDS011;39850;43.324;21.916;2022-11-02T17:31:25;20.0;;;15.0;;
53939;SDS011;39850;43.324;21.916;2022-11-02T17:36:08;20.0;;;15.0;;
53939;SDS011;39850;43.324;21.916;2022-11-02T17:40:45;20.0;;;15.0;;
53939;SDS011;39850;43.324;21.916;2022-11-02T17:45:28;20.0;;;15.0;;
53939;SDS011;39850;43.324;21.916;2022-11-02T17:50:08;20.0;;;15.0;;
53939;SDS011;39850;43.324;21.916;2022-11-02T17:54:45;20.0;;;15.0;;
53939;SDS011;39850;43.324;21.916;2022-11-02T17:59:22;20.0;;;15.0;;
53939;SDS011;39850;43.324;21.916;2022-11-02T18:03:58;20.0;;;15.0;;
53939;SDS011;39850;43.324;21.916;2022-11-02T18:08:35;20.0;;;15.0;;
53939;SDS011;39850;43.324;21.916;2022-11-02T18:45:41;28.0;;;22.0;;
53939;SDS011;39850;43.324;21.916;2022-11-02T18:50:18;28.0;;;22.0;;
53939;SDS011;39850;43.324;21.916;2022-11-02T18:54:55;28.0;;;22.0;;
53939;SDS011;39850;43.324;21.916;2022-11-02T18:59:31;28.0;;;22.0;;
53939;SDS011;39850;43.324;21.916;2022-11-02T19:04:09;30.0;;;24.0;;
53939;SDS011;39850;43.324;21.916;2022-11-02T19:08:45;30.0;;;24.0;;
53939;SDS011;39850;43.324;21.916;2022-11-02T19:13:22;31.0;;;25.0;;
53939;SDS011;39850;43.324;21.916;2022-11-02T19:17:58;31.0;;;25.0;;
53939;SDS011;39850;43.324;21.916;2022-11-02T19:22:35;31.0;;;25.0;;
53939;SDS011;39850;43.324;21.916;2022-11-02T19:27:19;31.0;;;25.0;;
53939;SDS011;39850;43.324;21.916;2022-11-02T20:04:27;44.0;;;36.0;;
53939;SDS011;39850;43.324;21.916;2022-11-02T20:09:16;44.0;;;36.0;;
53939;SDS011;39850;43.324;21.916;2022-11-02T20:13:59;47.0;;;38.0;;
53939;SDS011;39850;43.324;21.916;2022-11-02T20:18:45;47.0;;;38.0;;
53939;SDS011;39850;43.324;21.916;2022-11-02T20:23:24;47.0;;;38.0;;
53939;SDS011;39850;43.324;21.916;2022-11-02T20:28:01;47.0;;;38.0;;
53939;SDS011;39850;43.324;21.916;2022-11-02T20:32:38;50.0;;;41.0;;
53939;SDS011;39850;43.324;21.916;2022-11-02T20:37:14;50.0;;;41.0;;
53939;SDS011;39850;43.324;21.916;2022-11-02T21:23:25;66.0;;;47.0;;
53939;SDS011;39850;43.324;21.916;2022-11-02T21:28:03;66.0;;;47.0;;
53939;SDS011;39850;43.324;21.916;2022-11-02T21:32:40;66.0;;;47.0;;
53939;SDS011;39850;43.324;21.916;2022-11-02T21:37:16;66.0;;;47.0;;
53939;SDS011;39850;43.324;21.916;2022-11-02T21:41:52;66.0;;;47.0;;
53939;SDS011;39850;43.324;21.916;2022-11-02T21:46:29;66.0;;;47.0;;
53939;SDS011;39850;43.324;21.916;2022-11-02T21:51:12;66.0;;;47.0;;
53939;SDS011;39850;43.324;21.916;2022-11-02T21:56:01;66.0;;;48.0;;
53939;SDS011;39850;43.324;21.916;2022-11-02T22:00:42;66.0;;;48.0;;
53939;SDS011;39850;43.324;21.916;2022-11-02T22:05:18;67.0;;;48.0;;
53939;SDS011;39850;43.324;21.916;2022-11-02T22:09:55;67.0;;;48.0;;
53939;SDS011;39850;43.324;21.916;2022-11-02T22:42:22;92.0;;;57.0;;
53939;SDS011;39850;43.324;21.916;2022-11-02T22:46:59;92.0;;;57.0;;
53939;SDS011;39850;43.324;21.916;2022-11-02T22:51:45;92.0;;;57.0;;
53939;SDS011;39850;43.324;21.916;2022-11-02T22:56:25;92.0;;;57.0;;
53939;SDS011;39850;43.324;21.916;2022-11-02T23:01:06;92.0;;;57.0;;
53939;SDS011;39850;43.324;21.916;2022-11-02T23:05:46;100.0;;;60.0;;
53939;SDS011;39850;43.324;21.916;2022-11-02T23:10:23;100.0;;;60.0;;
53939;SDS011;39850;43.324;21.916;2022-11-02T23:15:00;108.0;;;62.0;;
53939;SDS011;39850;43.324;21.916;2022-11-02T23:19:36;108.0;;;62.0;;
53939;SDS011;39850;43.324;21.916;2022-11-02T23:24:14;108.0;;;62.0;;
53939;SDS011;39850;43.324;21.916;2022-11-02T23:28:52;108.0;;;62.0;;
